Ana Sayfa
METAR-TAF:

METAR-TAF

Havaalanları :

Pakse, Laos

Enlem: 15-08-02N, Boylam: 105-46-55E, yükseklik: 107 m

Güncel hava durumu gözlemi

Rapor saat 13:00 UTC de 6 saat ve 51 dakika önce yapıldı.
Rüzgar batıdan 4 kt
Sıcaklık 25°C
Nem 94%
Basınç 1011 hPa
Görüş mesafesi 10 km veya daha fazla
2000 ft yükseklikte az bulutlu
20000 ft yükseklikte parçalı çok bulutlu

METAR: VLPS 151300Z 27004KT 9999 FEW020 BKN200 25/24 Q1011 NOSIG

Saat: 02:51 (19:51 UTC)

Tahmin

Rapor saat 17:00 UTC de 2 saat ve 51 dakika önce yapıldı.
Ayın 15'si saat 18 UTC'den ayın 16'si saat 18 UTC'ye kadar geçerli Tahmin
Rüzgar kuzeybatıdan 4 kt
Görüş mesafesi 10 km veya daha fazla
2000 ft yükseklikte az bulutlu
5000 ft yükseklikte parçalı bulutlu
20000 ft yükseklikte parçalı bulutlu

TAF: VLPS 151700Z 1518/1618 32004KT 9999 FEW020 SCT050 SCT200

4.000'den fazla havaalanı için hava durumu gözlemleri ve tahminleri (METAR ve TAF raporları).

Kullanılabilir istasyonlar harita üzerinde sarı ve kırmızı noktalarla gösterilir.

İstasyonun adını görmek için fareyi noktanın üzerinde gezdirin.

Sonrasında hava gözlem ve tahminlerini görmek için tıklayın.

Haritayı değiştirmek için: yaklaştırmak için siyah artı işaretli yeşil düğmeye ve uzaklaştırmak için de eksi işaretli düğmeye hızla tıklayın; bitişik haritalar için yeşil okları kullanın.


METAR-TAF: